sensor_id;sensor_type;location;lat;lon;timestamp;P1;durP1;ratioP1;P2;durP2;ratioP2
57433;SDS011;43277;52.672;6.984;2022-07-11T00:02:04;8.18;;;2.20;;
57433;SDS011;43277;52.672;6.984;2022-07-11T00:04:31;7.07;;;2.35;;
57433;SDS011;43277;52.672;6.984;2022-07-11T00:06:57;7.13;;;2.30;;
57433;SDS011;43277;52.672;6.984;2022-07-11T00:09:24;5.80;;;2.25;;
57433;SDS011;43277;52.672;6.984;2022-07-11T00:11:49;6.72;;;2.38;;
57433;SDS011;43277;52.672;6.984;2022-07-11T00:14:15;9.00;;;2.53;;
57433;SDS011;43277;52.672;6.984;2022-07-11T00:16:42;8.35;;;2.15;;
57433;SDS011;43277;52.672;6.984;2022-07-11T00:19:07;6.03;;;2.20;;
57433;SDS011;43277;52.672;6.984;2022-07-11T00:21:33;7.05;;;2.30;;
57433;SDS011;43277;52.672;6.984;2022-07-11T00:24:01;6.75;;;2.20;;
57433;SDS011;43277;52.672;6.984;2022-07-11T00:26:27;7.82;;;2.15;;
57433;SDS011;43277;52.672;6.984;2022-07-11T00:28:53;8.90;;;2.63;;
57433;SDS011;43277;52.672;6.984;2022-07-11T00:31:18;9.35;;;2.30;;
57433;SDS011;43277;52.672;6.984;2022-07-11T00:33:44;7.60;;;2.30;;
57433;SDS011;43277;52.672;6.984;2022-07-11T00:36:10;7.93;;;2.13;;
57433;SDS011;43277;52.672;6.984;2022-07-11T00:38:36;9.90;;;2.20;;
57433;SDS011;43277;52.672;6.984;2022-07-11T00:41:01;7.53;;;2.08;;
57433;SDS011;43277;52.672;6.984;2022-07-11T00:43:34;7.05;;;2.58;;
57433;SDS011;43277;52.672;6.984;2022-07-11T00:46:01;8.25;;;2.20;;
57433;SDS011;43277;52.672;6.984;2022-07-11T00:48:27;10.07;;;2.50;;
57433;SDS011;43277;52.672;6.984;2022-07-11T00:50:53;8.68;;;2.28;;
57433;SDS011;43277;52.672;6.984;2022-07-11T00:53:19;7.45;;;2.25;;
57433;SDS011;43277;52.672;6.984;2022-07-11T00:55:46;7.93;;;2.30;;
57433;SDS011;43277;52.672;6.984;2022-07-11T00:58:12;7.50;;;2.20;;
57433;SDS011;43277;52.672;6.984;2022-07-11T01:00:38;8.63;;;2.13;;
57433;SDS011;43277;52.672;6.984;2022-07-11T01:03:05;6.93;;;2.15;;
57433;SDS011;43277;52.672;6.984;2022-07-11T01:05:31;8.75;;;2.50;;
57433;SDS011;43277;52.672;6.984;2022-07-11T01:07:57;8.65;;;2.40;;
57433;SDS011;43277;52.672;6.984;2022-07-11T01:10:22;9.32;;;2.50;;
57433;SDS011;43277;52.672;6.984;2022-07-11T01:12:48;8.32;;;2.35;;
57433;SDS011;43277;52.672;6.984;2022-07-11T01:15:15;6.30;;;2.03;;
57433;SDS011;43277;52.672;6.984;2022-07-11T01:17:41;7.78;;;2.40;;
57433;SDS011;43277;52.672;6.984;2022-07-11T01:20:07;8.65;;;2.10;;
57433;SDS011;43277;52.672;6.984;2022-07-11T01:22:35;7.57;;;2.42;;
57433;SDS011;43277;52.672;6.984;2022-07-11T01:25:03;7.05;;;2.30;;
57433;SDS011;43277;52.672;6.984;2022-07-11T01:27:30;7.55;;;2.05;;
57433;SDS011;43277;52.672;6.984;2022-07-11T01:29:56;6.78;;;2.40;;
57433;SDS011;43277;52.672;6.984;2022-07-11T01:32:22;6.68;;;2.40;;
57433;SDS011;43277;52.672;6.984;2022-07-11T01:34:48;8.95;;;2.95;;
57433;SDS011;43277;52.672;6.984;2022-07-11T01:37:14;9.57;;;2.80;;
57433;SDS011;43277;52.672;6.984;2022-07-11T01:39:39;8.35;;;2.85;;
57433;SDS011;43277;52.672;6.984;2022-07-11T01:42:05;8.75;;;3.05;;
57433;SDS011;43277;52.672;6.984;2022-07-11T01:44:31;7.38;;;2.25;;
57433;SDS011;43277;52.672;6.984;2022-07-11T01:46:56;9.63;;;3.33;;
57433;SDS011;43277;52.672;6.984;2022-07-11T01:49:22;8.45;;;2.47;;
57433;SDS011;43277;52.672;6.984;2022-07-11T01:51:48;9.07;;;2.42;;
57433;SDS011;43277;52.672;6.984;2022-07-11T01:54:14;8.23;;;2.17;;
57433;SDS011;43277;52.672;6.984;2022-07-11T01:56:39;5.85;;;2.15;;
57433;SDS011;43277;52.672;6.984;2022-07-11T01:59:05;9.45;;;2.33;;
57433;SDS011;43277;52.672;6.984;2022-07-11T02:01:31;7.78;;;2.33;;
57433;SDS011;43277;52.672;6.984;2022-07-11T02:03:57;9.88;;;2.72;;
57433;SDS011;43277;52.672;6.984;2022-07-11T02:06:23;9.35;;;2.60;;
57433;SDS011;43277;52.672;6.984;2022-07-11T02:08:49;8.15;;;2.55;;
57433;SDS011;43277;52.672;6.984;2022-07-11T02:11:14;8.93;;;2.78;;
57433;SDS011;43277;52.672;6.984;2022-07-11T02:13:40;8.35;;;2.80;;
57433;SDS011;43277;52.672;6.984;2022-07-11T02:16:06;7.80;;;2.63;;
57433;SDS011;43277;52.672;6.984;2022-07-11T02:18:31;7.28;;;2.60;;
57433;SDS011;43277;52.672;6.984;2022-07-11T02:20:59;7.53;;;2.40;;
57433;SDS011;43277;52.672;6.984;2022-07-11T02:23:25;8.70;;;2.67;;
57433;SDS011;43277;52.672;6.984;2022-07-11T02:25:51;6.82;;;2.60;;
57433;SDS011;43277;52.672;6.984;2022-07-11T02:28:18;6.78;;;2.45;;
57433;SDS011;43277;52.672;6.984;2022-07-11T02:30:43;6.30;;;2.75;;
57433;SDS011;43277;52.672;6.984;2022-07-11T02:33:10;8.88;;;2.70;;
57433;SDS011;43277;52.672;6.984;2022-07-11T02:35:41;10.05;;;2.50;;
57433;SDS011;43277;52.672;6.984;2022-07-11T02:38:11;6.63;;;2.60;;
57433;SDS011;43277;52.672;6.984;2022-07-11T02:40:37;9.65;;;3.10;;
57433;SDS011;43277;52.672;6.984;2022-07-11T02:43:02;6.28;;;2.70;;
57433;SDS011;43277;52.672;6.984;2022-07-11T02:45:28;8.65;;;2.80;;
57433;SDS011;43277;52.672;6.984;2022-07-11T02:47:53;11.75;;;3.20;;
57433;SDS011;43277;52.672;6.984;2022-07-11T02:50:19;8.15;;;2.95;;
57433;SDS011;43277;52.672;6.984;2022-07-11T02:52:45;8.98;;;2.47;;
57433;SDS011;43277;52.672;6.984;2022-07-11T02:55:11;9.75;;;3.53;;
57433;SDS011;43277;52.672;6.984;2022-07-11T02:57:38;6.70;;;2.75;;
57433;SDS011;43277;52.672;6.984;2022-07-11T03:00:05;8.35;;;2.92;;
57433;SDS011;43277;52.672;6.984;2022-07-11T03:02:33;9.35;;;2.80;;
57433;SDS011;43277;52.672;6.984;2022-07-11T03:04:58;8.43;;;2.92;;
57433;SDS011;43277;52.672;6.984;2022-07-11T03:07:27;9.55;;;3.22;;
57433;SDS011;43277;52.672;6.984;2022-07-11T03:09:53;8.40;;;2.90;;
57433;SDS011;43277;52.672;6.984;2022-07-11T03:12:19;10.55;;;3.22;;
57433;SDS011;43277;52.672;6.984;2022-07-11T03:14:45;7.55;;;2.80;;
57433;SDS011;43277;52.672;6.984;2022-07-11T03:17:11;7.40;;;3.00;;
57433;SDS011;43277;52.672;6.984;2022-07-11T03:19:36;10.27;;;3.10;;
57433;SDS011;43277;52.672;6.984;2022-07-11T03:22:02;9.30;;;3.55;;
57433;SDS011;43277;52.672;6.984;2022-07-11T03:24:29;10.30;;;3.88;;
57433;SDS011;43277;52.672;6.984;2022-07-11T03:26:54;10.75;;;4.05;;
57433;SDS011;43277;52.672;6.984;2022-07-11T03:29:20;10.65;;;4.10;;
57433;SDS011;43277;52.672;6.984;2022-07-11T03:31:45;8.75;;;3.80;;
57433;SDS011;43277;52.672;6.984;2022-07-11T03:34:11;9.85;;;4.18;;
57433;SDS011;43277;52.672;6.984;2022-07-11T03:36:37;9.43;;;4.30;;
57433;SDS011;43277;52.672;6.984;2022-07-11T03:39:02;7.18;;;4.05;;
57433;SDS011;43277;52.672;6.984;2022-07-11T03:41:28;7.68;;;4.07;;
57433;SDS011;43277;52.672;6.984;2022-07-11T03:43:54;10.57;;;4.40;;
57433;SDS011;43277;52.672;6.984;2022-07-11T03:46:20;11.73;;;4.82;;
57433;SDS011;43277;52.672;6.984;2022-07-11T03:48:46;9.52;;;4.65;;
57433;SDS011;43277;52.672;6.984;2022-07-11T03:51:12;8.80;;;4.57;;
57433;SDS011;43277;52.672;6.984;2022-07-11T03:53:37;9.75;;;4.53;;
57433;SDS011;43277;52.672;6.984;2022-07-11T03:56:03;8.23;;;4.78;;
57433;SDS011;43277;52.672;6.984;2022-07-11T03:58:29;8.40;;;4.72;;
57433;SDS011;43277;52.672;6.984;2022-07-11T04:00:54;11.60;;;6.80;;
57433;SDS011;43277;52.672;6.984;2022-07-11T04:03:20;9.10;;;4.70;;
57433;SDS011;43277;52.672;6.984;2022-07-11T04:05:46;10.10;;;6.30;;
57433;SDS011;43277;52.672;6.984;2022-07-11T04:08:11;7.68;;;5.13;;
57433;SDS011;43277;52.672;6.984;2022-07-11T04:10:37;9.20;;;5.18;;
57433;SDS011;43277;52.672;6.984;2022-07-11T04:13:02;8.02;;;5.30;;
57433;SDS011;43277;52.672;6.984;2022-07-11T04:15:28;7.40;;;4.95;;
57433;SDS011;43277;52.672;6.984;2022-07-11T04:17:53;7.28;;;4.68;;
57433;SDS011;43277;52.672;6.984;2022-07-11T04:20:19;9.38;;;4.78;;
57433;SDS011;43277;52.672;6.984;2022-07-11T04:22:45;7.72;;;4.57;;
57433;SDS011;43277;52.672;6.984;2022-07-11T04:25:10;8.25;;;5.30;;
57433;SDS011;43277;52.672;6.984;2022-07-11T04:27:36;7.95;;;4.28;;
57433;SDS011;43277;52.672;6.984;2022-07-11T04:30:02;7.53;;;4.90;;
57433;SDS011;43277;52.672;6.984;2022-07-11T04:32:27;6.55;;;4.10;;
57433;SDS011;43277;52.672;6.984;2022-07-11T04:34:53;9.60;;;5.05;;
57433;SDS011;43277;52.672;6.984;2022-07-11T04:37:19;8.40;;;4.80;;
57433;SDS011;43277;52.672;6.984;2022-07-11T04:39:44;7.57;;;4.38;;
57433;SDS011;43277;52.672;6.984;2022-07-11T04:42:11;7.00;;;4.60;;
57433;SDS011;43277;52.672;6.984;2022-07-11T04:44:37;7.70;;;4.32;;
57433;SDS011;43277;52.672;6.984;2022-07-11T04:47:03;6.90;;;4.30;;
57433;SDS011;43277;52.672;6.984;2022-07-11T04:49:29;6.72;;;3.55;;
57433;SDS011;43277;52.672;6.984;2022-07-11T04:51:54;6.10;;;3.90;;
57433;SDS011;43277;52.672;6.984;2022-07-11T04:54:22;7.47;;;4.25;;
57433;SDS011;43277;52.672;6.984;2022-07-11T04:56:47;7.32;;;4.47;;
57433;SDS011;43277;52.672;6.984;2022-07-11T04:59:13;8.40;;;3.95;;
57433;SDS011;43277;52.672;6.984;2022-07-11T05:01:38;7.65;;;4.70;;
57433;SDS011;43277;52.672;6.984;2022-07-11T05:04:04;7.85;;;4.90;;
57433;SDS011;43277;52.672;6.984;2022-07-11T05:06:30;7.93;;;4.78;;
57433;SDS011;43277;52.672;6.984;2022-07-11T05:08:55;9.18;;;5.07;;
57433;SDS011;43277;52.672;6.984;2022-07-11T05:11:21;9.38;;;4.93;;
57433;SDS011;43277;52.672;6.984;2022-07-11T05:13:46;7.40;;;4.22;;
57433;SDS011;43277;52.672;6.984;2022-07-11T05:16:12;8.52;;;5.00;;
57433;SDS011;43277;52.672;6.984;2022-07-11T05:18:38;13.20;;;5.13;;
57433;SDS011;43277;52.672;6.984;2022-07-11T05:21:04;7.90;;;4.63;;
57433;SDS011;43277;52.672;6.984;2022-07-11T05:23:30;9.75;;;4.85;;
57433;SDS011;43277;52.672;6.984;2022-07-11T05:25:55;9.60;;;4.40;;
57433;SDS011;43277;52.672;6.984;2022-07-11T05:28:21;8.20;;;4.00;;
57433;SDS011;43277;52.672;6.984;2022-07-11T05:30:46;7.95;;;4.18;;
57433;SDS011;43277;52.672;6.984;2022-07-11T05:33:12;8.80;;;4.35;;
57433;SDS011;43277;52.672;6.984;2022-07-11T05:35:37;7.68;;;3.85;;
57433;SDS011;43277;52.672;6.984;2022-07-11T05:38:03;7.50;;;3.50;;
57433;SDS011;43277;52.672;6.984;2022-07-11T05:40:29;6.38;;;3.30;;
57433;SDS011;43277;52.672;6.984;2022-07-11T05:42:54;6.50;;;3.03;;
57433;SDS011;43277;52.672;6.984;2022-07-11T05:45:20;5.82;;;2.60;;
57433;SDS011;43277;52.672;6.984;2022-07-11T05:47:45;5.45;;;2.70;;
57433;SDS011;43277;52.672;6.984;2022-07-11T05:50:11;5.60;;;2.70;;
57433;SDS011;43277;52.672;6.984;2022-07-11T05:52:36;6.70;;;2.40;;
57433;SDS011;43277;52.672;6.984;2022-07-11T05:55:02;6.53;;;2.50;;
57433;SDS011;43277;52.672;6.984;2022-07-11T05:57:28;5.43;;;2.00;;
57433;SDS011;43277;52.672;6.984;2022-07-11T05:59:54;5.20;;;2.08;;
57433;SDS011;43277;52.672;6.984;2022-07-11T06:02:19;6.20;;;1.95;;
57433;SDS011;43277;52.672;6.984;2022-07-11T06:04:45;5.53;;;2.35;;
57433;SDS011;43277;52.672;6.984;2022-07-11T06:07:11;4.63;;;1.92;;
57433;SDS011;43277;52.672;6.984;2022-07-11T06:09:36;4.93;;;2.03;;
57433;SDS011;43277;52.672;6.984;2022-07-11T06:12:03;5.50;;;2.03;;
57433;SDS011;43277;52.672;6.984;2022-07-11T06:14:29;5.57;;;2.70;;
57433;SDS011;43277;52.672;6.984;2022-07-11T06:16:55;5.97;;;2.50;;
57433;SDS011;43277;52.672;6.984;2022-07-11T06:19:20;5.65;;;2.40;;
57433;SDS011;43277;52.672;6.984;2022-07-11T06:21:46;5.03;;;2.25;;
57433;SDS011;43277;52.672;6.984;2022-07-11T06:24:12;5.57;;;2.33;;
57433;SDS011;43277;52.672;6.984;2022-07-11T06:26:37;4.72;;;1.90;;
57433;SDS011;43277;52.672;6.984;2022-07-11T06:29:03;4.03;;;1.27;;
57433;SDS011;43277;52.672;6.984;2022-07-11T06:31:29;4.78;;;1.60;;
57433;SDS011;43277;52.672;6.984;2022-07-11T06:33:54;6.00;;;1.25;;
57433;SDS011;43277;52.672;6.984;2022-07-11T06:36:21;6.18;;;1.30;;
57433;SDS011;43277;52.672;6.984;2022-07-11T06:38:50;3.75;;;1.30;;
57433;SDS011;43277;52.672;6.984;2022-07-11T06:41:16;4.07;;;1.40;;
57433;SDS011;43277;52.672;6.984;2022-07-11T06:43:41;5.60;;;1.35;;
57433;SDS011;43277;52.672;6.984;2022-07-11T06:46:07;3.90;;;1.42;;
57433;SDS011;43277;52.672;6.984;2022-07-11T06:48:32;3.30;;;1.20;;
57433;SDS011;43277;52.672;6.984;2022-07-11T06:50:58;3.40;;;1.27;;
57433;SDS011;43277;52.672;6.984;2022-07-11T06:53:23;5.28;;;1.30;;
57433;SDS011;43277;52.672;6.984;2022-07-11T06:55:49;5.22;;;1.70;;
57433;SDS011;43277;52.672;6.984;2022-07-11T06:58:15;3.40;;;1.30;;
57433;SDS011;43277;52.672;6.984;2022-07-11T07:00:57;6.07;;;1.25;;
57433;SDS011;43277;52.672;6.984;2022-07-11T07:03:27;4.28;;;1.05;;
57433;SDS011;43277;52.672;6.984;2022-07-11T07:05:54;3.55;;;1.13;;
57433;SDS011;43277;52.672;6.984;2022-07-11T07:08:21;3.95;;;1.38;;
57433;SDS011;43277;52.672;6.984;2022-07-11T07:10:50;3.33;;;1.10;;
57433;SDS011;43277;52.672;6.984;2022-07-11T07:13:17;2.45;;;0.90;;
57433;SDS011;43277;52.672;6.984;2022-07-11T07:15:43;3.67;;;1.13;;
57433;SDS011;43277;52.672;6.984;2022-07-11T07:18:09;3.38;;;0.80;;
57433;SDS011;43277;52.672;6.984;2022-07-11T07:20:34;4.05;;;1.00;;
57433;SDS011;43277;52.672;6.984;2022-07-11T07:23:00;2.80;;;1.00;;
57433;SDS011;43277;52.672;6.984;2022-07-11T07:25:25;2.45;;;0.93;;
57433;SDS011;43277;52.672;6.984;2022-07-11T07:27:51;4.53;;;0.93;;
57433;SDS011;43277;52.672;6.984;2022-07-11T07:30:17;4.88;;;0.90;;
57433;SDS011;43277;52.672;6.984;2022-07-11T07:32:43;2.45;;;0.90;;
57433;SDS011;43277;52.672;6.984;2022-07-11T07:35:08;3.30;;;1.00;;
57433;SDS011;43277;52.672;6.984;2022-07-11T07:37:34;2.45;;;0.73;;
57433;SDS011;43277;52.672;6.984;2022-07-11T07:39:59;3.58;;;1.10;;
57433;SDS011;43277;52.672;6.984;2022-07-11T07:42:25;3.83;;;0.80;;
57433;SDS011;43277;52.672;6.984;2022-07-11T07:44:51;3.75;;;0.90;;
57433;SDS011;43277;52.672;6.984;2022-07-11T07:47:16;4.05;;;0.93;;
57433;SDS011;43277;52.672;6.984;2022-07-11T07:49:42;3.58;;;0.98;;
57433;SDS011;43277;52.672;6.984;2022-07-11T07:52:07;3.28;;;1.00;;
57433;SDS011;43277;52.672;6.984;2022-07-11T07:54:33;3.42;;;0.90;;
57433;SDS011;43277;52.672;6.984;2022-07-11T07:56:59;2.88;;;0.77;;
57433;SDS011;43277;52.672;6.984;2022-07-11T07:59:24;3.47;;;0.93;;
57433;SDS011;43277;52.672;6.984;2022-07-11T08:01:51;4.47;;;1.02;;
57433;SDS011;43277;52.672;6.984;2022-07-11T08:04:17;3.63;;;1.00;;
57433;SDS011;43277;52.672;6.984;2022-07-11T08:06:43;3.05;;;0.70;;
57433;SDS011;43277;52.672;6.984;2022-07-11T08:09:08;2.13;;;0.80;;
57433;SDS011;43277;52.672;6.984;2022-07-11T08:11:34;4.03;;;1.10;;
57433;SDS011;43277;52.672;6.984;2022-07-11T08:14:00;3.15;;;0.80;;
57433;SDS011;43277;52.672;6.984;2022-07-11T08:16:28;2.97;;;0.80;;
57433;SDS011;43277;52.672;6.984;2022-07-11T08:18:54;4.53;;;0.90;;
57433;SDS011;43277;52.672;6.984;2022-07-11T08:21:21;3.40;;;0.80;;
57433;SDS011;43277;52.672;6.984;2022-07-11T08:23:46;3.55;;;0.73;;
57433;SDS011;43277;52.672;6.984;2022-07-11T08:26:12;4.03;;;0.90;;
57433;SDS011;43277;52.672;6.984;2022-07-11T08:28:38;3.53;;;1.10;;
57433;SDS011;43277;52.672;6.984;2022-07-11T08:31:04;2.50;;;0.68;;
57433;SDS011;43277;52.672;6.984;2022-07-11T08:33:29;2.97;;;0.70;;
57433;SDS011;43277;52.672;6.984;2022-07-11T08:35:55;3.10;;;0.60;;
57433;SDS011;43277;52.672;6.984;2022-07-11T08:38:21;3.13;;;0.70;;
57433;SDS011;43277;52.672;6.984;2022-07-11T08:40:48;2.85;;;0.70;;
57433;SDS011;43277;52.672;6.984;2022-07-11T08:43:16;2.63;;;0.68;;
57433;SDS011;43277;52.672;6.984;2022-07-11T08:45:46;2.03;;;0.47;;
57433;SDS011;43277;52.672;6.984;2022-07-11T08:48:13;2.40;;;0.35;;
57433;SDS011;43277;52.672;6.984;2022-07-11T08:50:40;2.25;;;0.70;;
57433;SDS011;43277;52.672;6.984;2022-07-11T08:53:09;4.57;;;0.52;;
57433;SDS011;43277;52.672;6.984;2022-07-11T08:55:35;2.50;;;0.60;;
57433;SDS011;43277;52.672;6.984;2022-07-11T08:58:00;3.10;;;0.70;;
57433;SDS011;43277;52.672;6.984;2022-07-11T09:00:28;0.93;;;0.40;;
57433;SDS011;43277;52.672;6.984;2022-07-11T09:02:53;2.42;;;0.52;;
57433;SDS011;43277;52.672;6.984;2022-07-11T09:05:20;1.83;;;0.50;;
57433;SDS011;43277;52.672;6.984;2022-07-11T09:07:46;1.27;;;0.40;;
57433;SDS011;43277;52.672;6.984;2022-07-11T09:10:14;2.35;;;0.68;;
57433;SDS011;43277;52.672;6.984;2022-07-11T09:20:58;1.35;;;0.40;;
57433;SDS011;43277;52.672;6.984;2022-07-11T09:23:43;1.45;;;0.40;;
57433;SDS011;43277;52.672;6.984;2022-07-11T09:26:28;1.65;;;0.40;;
57433;SDS011;43277;52.672;6.984;2022-07-11T09:29:14;1.65;;;0.47;;
57433;SDS011;43277;52.672;6.984;2022-07-11T09:31:42;1.80;;;0.47;;
57433;SDS011;43277;52.672;6.984;2022-07-11T09:34:13;1.60;;;0.40;;
57433;SDS011;43277;52.672;6.984;2022-07-11T09:36:41;1.25;;;0.40;;
57433;SDS011;43277;52.672;6.984;2022-07-11T09:39:12;1.75;;;0.40;;
57433;SDS011;43277;52.672;6.984;2022-07-11T09:41:40;1.50;;;0.50;;
57433;SDS011;43277;52.672;6.984;2022-07-11T09:44:09;2.25;;;0.40;;
57433;SDS011;43277;52.672;6.984;2022-07-11T09:46:44;1.40;;;0.40;;
57433;SDS011;43277;52.672;6.984;2022-07-11T09:49:12;1.38;;;0.40;;
57433;SDS011;43277;52.672;6.984;2022-07-11T09:51:38;1.65;;;0.50;;
57433;SDS011;43277;52.672;6.984;2022-07-11T09:54:05;1.45;;;0.47;;
57433;SDS011;43277;52.672;6.984;2022-07-11T09:59:07;0.82;;;0.30;;
57433;SDS011;43277;52.672;6.984;2022-07-11T10:01:35;1.63;;;0.40;;
57433;SDS011;43277;52.672;6.984;2022-07-11T10:04:01;0.95;;;0.45;;
57433;SDS011;43277;52.672;6.984;2022-07-11T10:06:27;0.75;;;0.40;;
57433;SDS011;43277;52.672;6.984;2022-07-11T10:08:53;1.98;;;0.50;;
57433;SDS011;43277;52.672;6.984;2022-07-11T10:11:20;2.13;;;0.40;;
57433;SDS011;43277;52.672;6.984;2022-07-11T10:13:46;2.20;;;0.30;;
57433;SDS011;43277;52.672;6.984;2022-07-11T10:19:16;1.70;;;0.30;;
57433;SDS011;43277;52.672;6.984;2022-07-11T10:24:59;0.93;;;0.30;;
57433;SDS011;43277;52.672;6.984;2022-07-11T10:27:33;2.45;;;0.50;;
57433;SDS011;43277;52.672;6.984;2022-07-11T10:30:04;2.58;;;0.60;;
57433;SDS011;43277;52.672;6.984;2022-07-11T10:32:30;2.92;;;0.55;;
57433;SDS011;43277;52.672;6.984;2022-07-11T10:35:07;1.00;;;0.40;;
57433;SDS011;43277;52.672;6.984;2022-07-11T10:37:46;2.30;;;0.40;;
57433;SDS011;43277;52.672;6.984;2022-07-11T10:40:13;1.52;;;0.50;;
57433;SDS011;43277;52.672;6.984;2022-07-11T10:42:39;2.50;;;0.40;;
57433;SDS011;43277;52.672;6.984;2022-07-11T10:45:07;1.00;;;0.40;;
57433;SDS011;43277;52.672;6.984;2022-07-11T10:47:40;0.93;;;0.40;;
57433;SDS011;43277;52.672;6.984;2022-07-11T10:50:13;1.65;;;0.40;;
57433;SDS011;43277;52.672;6.984;2022-07-11T10:52:44;2.63;;;0.40;;
57433;SDS011;43277;52.672;6.984;2022-07-11T10:55:19;2.08;;;0.40;;
57433;SDS011;43277;52.672;6.984;2022-07-11T11:00:31;1.65;;;0.47;;
57433;SDS011;43277;52.672;6.984;2022-07-11T11:03:06;1.77;;;0.40;;
57433;SDS011;43277;52.672;6.984;2022-07-11T11:05:54;1.15;;;0.40;;
57433;SDS011;43277;52.672;6.984;2022-07-11T11:10:57;1.58;;;0.50;;
57433;SDS011;43277;52.672;6.984;2022-07-11T11:13:24;1.48;;;0.40;;
57433;SDS011;43277;52.672;6.984;2022-07-11T11:15:51;1.35;;;0.50;;
57433;SDS011;43277;52.672;6.984;2022-07-11T11:23:25;0.77;;;0.40;;
57433;SDS011;43277;52.672;6.984;2022-07-11T11:28:56;3.30;;;0.60;;
57433;SDS011;43277;52.672;6.984;2022-07-11T11:31:26;1.98;;;0.60;;
57433;SDS011;43277;52.672;6.984;2022-07-11T11:33:53;1.30;;;0.50;;
57433;SDS011;43277;52.672;6.984;2022-07-11T11:36:19;2.83;;;0.60;;
57433;SDS011;43277;52.672;6.984;2022-07-11T11:38:46;2.22;;;0.60;;
57433;SDS011;43277;52.672;6.984;2022-07-11T11:41:13;4.18;;;0.50;;
57433;SDS011;43277;52.672;6.984;2022-07-11T11:43:45;3.42;;;0.52;;
57433;SDS011;43277;52.672;6.984;2022-07-11T11:46:11;2.55;;;0.40;;
57433;SDS011;43277;52.672;6.984;2022-07-11T11:48:38;4.95;;;0.50;;
57433;SDS011;43277;52.672;6.984;2022-07-11T11:51:05;1.33;;;0.50;;
57433;SDS011;43277;52.672;6.984;2022-07-11T11:53:38;2.95;;;0.50;;
57433;SDS011;43277;52.672;6.984;2022-07-11T11:59:03;3.70;;;0.55;;
57433;SDS011;43277;52.672;6.984;2022-07-11T12:01:30;3.53;;;0.50;;
57433;SDS011;43277;52.672;6.984;2022-07-11T12:04:01;1.15;;;0.40;;
57433;SDS011;43277;52.672;6.984;2022-07-11T12:06:29;2.35;;;0.50;;
57433;SDS011;43277;52.672;6.984;2022-07-11T12:09:03;1.55;;;0.50;;
57433;SDS011;43277;52.672;6.984;2022-07-11T12:11:35;6.20;;;0.60;;
57433;SDS011;43277;52.672;6.984;2022-07-11T12:16:32;1.30;;;0.47;;
57433;SDS011;43277;52.672;6.984;2022-07-11T12:21:42;2.10;;;0.60;;
57433;SDS011;43277;52.672;6.984;2022-07-11T12:24:10;1.20;;;0.30;;
57433;SDS011;43277;52.672;6.984;2022-07-11T12:26:38;5.05;;;0.50;;
57433;SDS011;43277;52.672;6.984;2022-07-11T12:29:09;2.88;;;0.60;;
57433;SDS011;43277;52.672;6.984;2022-07-11T12:34:13;3.08;;;0.47;;
57433;SDS011;43277;52.672;6.984;2022-07-11T12:36:40;3.20;;;0.75;;
57433;SDS011;43277;52.672;6.984;2022-07-11T12:39:06;1.38;;;0.30;;
57433;SDS011;43277;52.672;6.984;2022-07-11T12:41:33;1.83;;;0.30;;
57433;SDS011;43277;52.672;6.984;2022-07-11T12:43:59;3.83;;;0.43;;
57433;SDS011;43277;52.672;6.984;2022-07-11T12:46:44;1.27;;;0.50;;
57433;SDS011;43277;52.672;6.984;2022-07-11T12:49:13;3.20;;;0.50;;
57433;SDS011;43277;52.672;6.984;2022-07-11T12:51:40;3.47;;;0.40;;
57433;SDS011;43277;52.672;6.984;2022-07-11T12:54:17;3.17;;;0.43;;
57433;SDS011;43277;52.672;6.984;2022-07-11T12:56:52;3.28;;;0.43;;
57433;SDS011;43277;52.672;6.984;2022-07-11T12:59:22;2.55;;;0.50;;
57433;SDS011;43277;52.672;6.984;2022-07-11T13:01:56;1.90;;;0.43;;
57433;SDS011;43277;52.672;6.984;2022-07-11T13:06:55;2.35;;;0.52;;
57433;SDS011;43277;52.672;6.984;2022-07-11T13:09:39;1.80;;;0.40;;
57433;SDS011;43277;52.672;6.984;2022-07-11T13:12:05;2.17;;;0.43;;
57433;SDS011;43277;52.672;6.984;2022-07-11T13:14:31;1.25;;;0.30;;
57433;SDS011;43277;52.672;6.984;2022-07-11T13:17:15;4.07;;;0.50;;
57433;SDS011;43277;52.672;6.984;2022-07-11T13:19:41;1.75;;;0.40;;
57433;SDS011;43277;52.672;6.984;2022-07-11T13:22:07;1.42;;;0.40;;
57433;SDS011;43277;52.672;6.984;2022-07-11T13:24:32;1.38;;;0.32;;
57433;SDS011;43277;52.672;6.984;2022-07-11T13:26:58;2.78;;;0.40;;
57433;SDS011;43277;52.672;6.984;2022-07-11T13:29:23;3.25;;;0.40;;
57433;SDS011;43277;52.672;6.984;2022-07-11T13:31:49;1.73;;;0.40;;
57433;SDS011;43277;52.672;6.984;2022-07-11T13:34:14;3.50;;;0.47;;
57433;SDS011;43277;52.672;6.984;2022-07-11T13:36:40;2.30;;;0.40;;
57433;SDS011;43277;52.672;6.984;2022-07-11T13:39:06;2.38;;;0.40;;
57433;SDS011;43277;52.672;6.984;2022-07-11T13:41:31;1.85;;;0.40;;
57433;SDS011;43277;52.672;6.984;2022-07-11T13:43:57;1.30;;;0.52;;
57433;SDS011;43277;52.672;6.984;2022-07-11T13:46:23;2.50;;;0.40;;
57433;SDS011;43277;52.672;6.984;2022-07-11T13:48:48;1.58;;;0.50;;
57433;SDS011;43277;52.672;6.984;2022-07-11T13:51:14;1.40;;;0.40;;
57433;SDS011;43277;52.672;6.984;2022-07-11T13:53:39;2.25;;;0.50;;
57433;SDS011;43277;52.672;6.984;2022-07-11T13:56:05;2.88;;;0.40;;
57433;SDS011;43277;52.672;6.984;2022-07-11T13:58:31;1.95;;;0.40;;
57433;SDS011;43277;52.672;6.984;2022-07-11T14:00:57;0.85;;;0.30;;
57433;SDS011;43277;52.672;6.984;2022-07-11T14:03:24;3.13;;;0.43;;
57433;SDS011;43277;52.672;6.984;2022-07-11T14:05:49;1.45;;;0.40;;
57433;SDS011;43277;52.672;6.984;2022-07-11T14:08:15;2.58;;;0.50;;
57433;SDS011;43277;52.672;6.984;2022-07-11T14:10:41;0.95;;;0.32;;
57433;SDS011;43277;52.672;6.984;2022-07-11T14:13:07;2.15;;;0.40;;
57433;SDS011;43277;52.672;6.984;2022-07-11T14:15:33;1.55;;;0.40;;
57433;SDS011;43277;52.672;6.984;2022-07-11T14:17:58;2.30;;;0.40;;
57433;SDS011;43277;52.672;6.984;2022-07-11T14:20:24;1.63;;;0.40;;
57433;SDS011;43277;52.672;6.984;2022-07-11T14:22:51;2.40;;;0.43;;
57433;SDS011;43277;52.672;6.984;2022-07-11T14:25:17;3.45;;;0.98;;
57433;SDS011;43277;52.672;6.984;2022-07-11T14:27:42;4.47;;;0.95;;
57433;SDS011;43277;52.672;6.984;2022-07-11T14:30:09;2.35;;;0.50;;
57433;SDS011;43277;52.672;6.984;2022-07-11T14:32:34;1.95;;;0.57;;
57433;SDS011;43277;52.672;6.984;2022-07-11T14:35:00;4.03;;;0.63;;
57433;SDS011;43277;52.672;6.984;2022-07-11T14:37:26;3.38;;;0.50;;
57433;SDS011;43277;52.672;6.984;2022-07-11T14:39:52;1.52;;;0.40;;
57433;SDS011;43277;52.672;6.984;2022-07-11T14:42:17;3.30;;;0.57;;
57433;SDS011;43277;52.672;6.984;2022-07-11T14:44:43;2.47;;;0.40;;
57433;SDS011;43277;52.672;6.984;2022-07-11T14:47:08;2.38;;;0.40;;
57433;SDS011;43277;52.672;6.984;2022-07-11T14:49:34;1.70;;;0.60;;
57433;SDS011;43277;52.672;6.984;2022-07-11T14:52:00;1.55;;;0.40;;
57433;SDS011;43277;52.672;6.984;2022-07-11T14:54:26;1.40;;;0.50;;
57433;SDS011;43277;52.672;6.984;2022-07-11T14:56:51;1.63;;;0.40;;
57433;SDS011;43277;52.672;6.984;2022-07-11T14:59:17;3.28;;;0.60;;
57433;SDS011;43277;52.672;6.984;2022-07-11T15:01:43;2.42;;;0.52;;
57433;SDS011;43277;52.672;6.984;2022-07-11T15:04:08;2.13;;;0.45;;
57433;SDS011;43277;52.672;6.984;2022-07-11T15:06:35;3.03;;;0.70;;
57433;SDS011;43277;52.672;6.984;2022-07-11T15:09:19;2.38;;;0.60;;
57433;SDS011;43277;52.672;6.984;2022-07-11T15:12:03;1.73;;;0.50;;
57433;SDS011;43277;52.672;6.984;2022-07-11T15:14:48;4.13;;;0.60;;
57433;SDS011;43277;52.672;6.984;2022-07-11T15:17:14;1.98;;;0.50;;
57433;SDS011;43277;52.672;6.984;2022-07-11T15:19:39;1.98;;;0.30;;
57433;SDS011;43277;52.672;6.984;2022-07-11T15:22:05;2.00;;;0.50;;
57433;SDS011;43277;52.672;6.984;2022-07-11T15:24:31;2.05;;;0.50;;
57433;SDS011;43277;52.672;6.984;2022-07-11T15:26:57;3.88;;;0.50;;
57433;SDS011;43277;52.672;6.984;2022-07-11T15:29:23;2.08;;;0.50;;
57433;SDS011;43277;52.672;6.984;2022-07-11T15:31:49;4.03;;;0.60;;